sensor_id;sensor_type;location;lat;lon;timestamp;pressure;altitude;pressure_sealevel;temperature;humidity
80640;BME280;69992;60.170;24.692;2024-02-16T00:01:00;102237.15;;;-5.04;32.62
80640;BME280;69992;60.170;24.692;2024-02-16T00:03:26;102235.68;;;-4.95;32.57
80640;BME280;69992;60.170;24.692;2024-02-16T00:05:51;102235.76;;;-4.07;32.60
80640;BME280;69992;60.170;24.692;2024-02-16T00:08:18;102237.03;;;-3.16;32.63
80640;BME280;69992;60.170;24.692;2024-02-16T00:10:42;102239.90;;;-3.23;32.65
80640;BME280;69992;60.170;24.692;2024-02-16T00:13:08;102236.42;;;-4.24;32.67
80640;BME280;69992;60.170;24.692;2024-02-16T00:15:33;102237.97;;;-5.22;32.68
80640;BME280;69992;60.170;24.692;2024-02-16T00:17:59;102233.57;;;-4.26;32.68
80640;BME280;69992;60.170;24.692;2024-02-16T00:20:24;102232.75;;;-4.24;32.68
80640;BME280;69992;60.170;24.692;2024-02-16T00:22:50;102231.63;;;-4.24;32.68
80640;BME280;69992;60.170;24.692;2024-02-16T00:25:16;102231.14;;;-5.11;32.68
80640;BME280;69992;60.170;24.692;2024-02-16T00:27:41;102225.63;;;-5.06;32.64
80640;BME280;69992;60.170;24.692;2024-02-16T00:30:08;102224.71;;;-5.02;32.62
80640;BME280;69992;60.170;24.692;2024-02-16T00:32:31;102226.57;;;-4.99;32.62
80640;BME280;69992;60.170;24.692;2024-02-16T00:34:57;102224.86;;;-4.98;32.60
80640;BME280;69992;60.170;24.692;2024-02-16T00:37:22;102222.17;;;-5.97;32.63
80640;BME280;69992;60.170;24.692;2024-02-16T00:39:47;102220.29;;;-3.04;32.63
80640;BME280;69992;60.170;24.692;2024-02-16T00:42:17;102218.81;;;-3.97;32.62
80640;BME280;69992;60.170;24.692;2024-02-16T00:44:39;102217.71;;;-4.97;32.63
80640;BME280;69992;60.170;24.692;2024-02-16T00:47:05;102216.18;;;-5.06;32.63
80640;BME280;69992;60.170;24.692;2024-02-16T00:49:30;102215.61;;;-3.17;32.66
80640;BME280;69992;60.170;24.692;2024-02-16T00:51:55;102213.85;;;-5.11;32.67
80640;BME280;69992;60.170;24.692;2024-02-16T00:54:21;102214.57;;;-5.09;32.66
80640;BME280;69992;60.170;24.692;2024-02-16T00:56:46;102214.31;;;-4.09;32.64
80640;BME280;69992;60.170;24.692;2024-02-16T00:59:12;102215.88;;;-5.03;32.62
80640;BME280;69992;60.170;24.692;2024-02-16T01:01:37;102218.17;;;-5.01;32.60
80640;BME280;69992;60.170;24.692;2024-02-16T01:04:02;102219.27;;;-4.08;32.62
80640;BME280;69992;60.170;24.692;2024-02-16T01:06:28;102218.44;;;-4.10;32.61
80640;BME280;69992;60.170;24.692;2024-02-16T01:08:54;102217.35;;;-3.19;32.63
80640;BME280;69992;60.170;24.692;2024-02-16T01:11:19;102217.68;;;-6.16;32.66
80640;BME280;69992;60.170;24.692;2024-02-16T01:13:45;102214.17;;;-3.20;32.66
80640;BME280;69992;60.170;24.692;2024-02-16T01:16:10;102215.71;;;-4.16;32.64
80640;BME280;69992;60.170;24.692;2024-02-16T01:18:35;102212.31;;;-4.21;32.65
80640;BME280;69992;60.170;24.692;2024-02-16T01:21:01;102216.20;;;-5.21;32.65
80640;BME280;69992;60.170;24.692;2024-02-16T01:23:26;102219.22;;;-5.23;32.66
80640;BME280;69992;60.170;24.692;2024-02-16T01:25:52;102218.98;;;-3.34;32.68
80640;BME280;69992;60.170;24.692;2024-02-16T01:28:18;102219.18;;;-4.35;32.69
80640;BME280;69992;60.170;24.692;2024-02-16T01:30:43;102217.69;;;-4.41;32.70
80640;BME280;69992;60.170;24.692;2024-02-16T01:33:11;102220.53;;;-3.52;32.71
80640;BME280;69992;60.170;24.692;2024-02-16T01:35:34;102219.47;;;-3.62;32.74
80640;BME280;69992;60.170;24.692;2024-02-16T01:37:59;102218.46;;;-5.58;32.75
80640;BME280;69992;60.170;24.692;2024-02-16T01:40:25;102218.84;;;-5.62;32.75
80640;BME280;69992;60.170;24.692;2024-02-16T01:42:49;102216.32;;;-5.55;32.73
80640;BME280;69992;60.170;24.692;2024-02-16T01:45:15;102216.02;;;-4.53;32.72
80640;BME280;69992;60.170;24.692;2024-02-16T01:47:41;102214.91;;;-3.55;32.71
80640;BME280;69992;60.170;24.692;2024-02-16T01:50:07;102218.81;;;-3.57;32.71
80640;BME280;69992;60.170;24.692;2024-02-16T01:52:31;102212.56;;;-5.52;32.70
80640;BME280;69992;60.170;24.692;2024-02-16T01:54:57;102208.76;;;-4.54;32.70
80640;BME280;69992;60.170;24.692;2024-02-16T01:57:25;102205.09;;;-5.50;32.71
80640;BME280;69992;60.170;24.692;2024-02-16T01:59:48;102201.68;;;-5.38;32.66
80640;BME280;69992;60.170;24.692;2024-02-16T02:02:13;102200.77;;;-4.38;32.64
80640;BME280;69992;60.170;24.692;2024-02-16T02:04:38;102196.79;;;-5.43;32.66
80640;BME280;69992;60.170;24.692;2024-02-16T02:07:13;102197.76;;;-4.51;32.69
80640;BME280;69992;60.170;24.692;2024-02-16T02:09:30;102197.55;;;-4.49;32.68
80640;BME280;69992;60.170;24.692;2024-02-16T02:11:55;102195.17;;;-4.51;32.69
80640;BME280;69992;60.170;24.692;2024-02-16T02:14:22;102195.84;;;-5.50;32.69
80640;BME280;69992;60.170;24.692;2024-02-16T02:16:46;102193.50;;;-5.45;32.67
80640;BME280;69992;60.170;24.692;2024-02-16T02:19:11;102194.65;;;-5.38;32.65
80640;BME280;69992;60.170;24.692;2024-02-16T02:21:36;102191.59;;;-5.39;32.67
80640;BME280;69992;60.170;24.692;2024-02-16T02:24:03;102193.04;;;-3.41;32.66
80640;BME280;69992;60.170;24.692;2024-02-16T02:26:27;102191.84;;;-5.36;32.66
80640;BME280;69992;60.170;24.692;2024-02-16T02:28:53;102186.92;;;-5.32;32.65
80640;BME280;69992;60.170;24.692;2024-02-16T02:31:18;102186.92;;;-5.32;32.65
80640;BME280;69992;60.170;24.692;2024-02-16T02:33:44;102185.69;;;-5.27;32.64
80640;BME280;69992;60.170;24.692;2024-02-16T02:36:09;102183.35;;;-3.31;32.61
80640;BME280;69992;60.170;24.692;2024-02-16T02:38:35;102181.73;;;-5.31;32.63
80640;BME280;69992;60.170;24.692;2024-02-16T02:41:00;102183.65;;;-4.43;32.65
80640;BME280;69992;60.170;24.692;2024-02-16T02:43:25;102185.00;;;-3.48;32.67
80640;BME280;69992;60.170;24.692;2024-02-16T02:45:51;102181.34;;;-3.57;32.70
80640;BME280;69992;60.170;24.692;2024-02-16T02:48:17;102178.43;;;-4.55;32.70
80640;BME280;69992;60.170;24.692;2024-02-16T02:50:41;102176.56;;;-4.59;32.71
80640;BME280;69992;60.170;24.692;2024-02-16T02:53:07;102173.92;;;-5.58;32.71
80640;BME280;69992;60.170;24.692;2024-02-16T02:55:32;102170.07;;;-4.59;32.71
80640;BME280;69992;60.170;24.692;2024-02-16T02:58:01;102169.74;;;-5.56;32.72
80640;BME280;69992;60.170;24.692;2024-02-16T03:00:23;102170.99;;;-5.56;32.71
80640;BME280;69992;60.170;24.692;2024-02-16T03:02:49;102166.33;;;-3.57;32.70
80640;BME280;69992;60.170;24.692;2024-02-16T03:05:14;102167.28;;;-4.53;32.67
80640;BME280;69992;60.170;24.692;2024-02-16T03:07:40;102164.55;;;-4.62;32.71
80640;BME280;69992;60.170;24.692;2024-02-16T03:10:06;102161.06;;;-3.70;32.74
80640;BME280;69992;60.170;24.692;2024-02-16T03:12:32;102157.22;;;-4.63;32.71
80640;BME280;69992;60.170;24.692;2024-02-16T03:14:56;102149.88;;;-4.61;32.71
80640;BME280;69992;60.170;24.692;2024-02-16T03:17:21;102150.48;;;-5.56;32.70
80640;BME280;69992;60.170;24.692;2024-02-16T03:19:46;102148.86;;;-5.51;32.67
80640;BME280;69992;60.170;24.692;2024-02-16T03:22:12;102153.16;;;-3.67;32.70
80640;BME280;69992;60.170;24.692;2024-02-16T03:24:37;102154.50;;;-3.71;32.71
80640;BME280;69992;60.170;24.692;2024-02-16T03:27:03;102153.07;;;-3.78;32.74
80640;BME280;69992;60.170;24.692;2024-02-16T03:29:28;102155.23;;;-5.72;32.74
80640;BME280;69992;60.170;24.692;2024-02-16T03:31:54;102160.92;;;-4.74;32.74
80640;BME280;69992;60.170;24.692;2024-02-16T03:34:19;102154.31;;;-5.73;32.74
80640;BME280;69992;60.170;24.692;2024-02-16T03:36:44;102152.51;;;-5.69;32.73
80640;BME280;69992;60.170;24.692;2024-02-16T03:39:10;102148.09;;;-3.72;32.73
80640;BME280;69992;60.170;24.692;2024-02-16T03:41:35;102145.48;;;-4.73;32.73
80640;BME280;69992;60.170;24.692;2024-02-16T03:44:04;102147.62;;;-3.84;32.75
80640;BME280;69992;60.170;24.692;2024-02-16T03:46:26;102147.92;;;-5.81;32.76
80640;BME280;69992;60.170;24.692;2024-02-16T03:48:51;102145.47;;;-5.75;32.73
80640;BME280;69992;60.170;24.692;2024-02-16T03:51:17;102144.50;;;-3.70;32.70
80640;BME280;69992;60.170;24.692;2024-02-16T03:53:42;102144.86;;;-4.60;32.69
80640;BME280;69992;60.170;24.692;2024-02-16T03:56:08;102138.99;;;-5.52;32.67
80640;BME280;69992;60.170;24.692;2024-02-16T03:58:33;102131.84;;;-3.63;32.69
80640;BME280;69992;60.170;24.692;2024-02-16T04:00:58;102130.15;;;-4.61;32.70
80640;BME280;69992;60.170;24.692;2024-02-16T04:03:23;102126.52;;;-4.55;32.70
80640;BME280;69992;60.170;24.692;2024-02-16T04:05:49;102123.48;;;-4.50;32.67
80640;BME280;69992;60.170;24.692;2024-02-16T04:08:14;102124.88;;;-4.50;32.67
80640;BME280;69992;60.170;24.692;2024-02-16T04:10:40;102122.97;;;-3.43;32.66
80640;BME280;69992;60.170;24.692;2024-02-16T04:13:06;102120.37;;;-4.35;32.62
80640;BME280;69992;60.170;24.692;2024-02-16T04:15:32;102120.94;;;-4.43;32.65
80640;BME280;69992;60.170;24.692;2024-02-16T04:17:58;102118.49;;;-5.58;32.68
80640;BME280;69992;60.170;24.692;2024-02-16T04:20:23;102117.83;;;-5.78;32.75
80640;BME280;69992;60.170;24.692;2024-02-16T04:22:48;102117.89;;;-5.88;32.75
80640;BME280;69992;60.170;24.692;2024-02-16T04:25:13;102114.38;;;-5.92;32.76
80640;BME280;69992;60.170;24.692;2024-02-16T04:27:39;102112.19;;;-4.86;32.74
80640;BME280;69992;60.170;24.692;2024-02-16T04:30:05;102110.56;;;-4.83;32.71
80640;BME280;69992;60.170;24.692;2024-02-16T04:32:31;102111.89;;;-5.79;32.71
80640;BME280;69992;60.170;24.692;2024-02-16T04:34:55;102110.84;;;-3.82;32.70
80640;BME280;69992;60.170;24.692;2024-02-16T04:37:21;102106.19;;;-3.88;32.71
80640;BME280;69992;60.170;24.692;2024-02-16T04:39:46;102104.16;;;-3.86;32.72
80640;BME280;69992;60.170;24.692;2024-02-16T04:42:12;102101.26;;;-3.92;32.72
80640;BME280;69992;60.170;24.692;2024-02-16T04:44:40;102100.55;;;-5.01;32.76
80640;BME280;69992;60.170;24.692;2024-02-16T04:47:03;102103.60;;;-5.04;32.76
80640;BME280;69992;60.170;24.692;2024-02-16T04:49:27;102105.76;;;-5.12;32.78
80640;BME280;69992;60.170;24.692;2024-02-16T04:51:53;102105.31;;;-6.13;32.78
80640;BME280;69992;60.170;24.692;2024-02-16T04:54:18;102105.28;;;-6.12;32.78
80640;BME280;69992;60.170;24.692;2024-02-16T04:56:44;102105.80;;;-4.10;32.77
80640;BME280;69992;60.170;24.692;2024-02-16T04:59:09;102102.49;;;-4.06;32.77
80640;BME280;69992;60.170;24.692;2024-02-16T05:01:35;102101.33;;;-4.06;32.74
80640;BME280;69992;60.170;24.692;2024-02-16T05:04:00;102095.62;;;-4.11;32.77
80640;BME280;69992;60.170;24.692;2024-02-16T05:06:26;102088.33;;;-4.08;32.75
80640;BME280;69992;60.170;24.692;2024-02-16T05:08:51;102081.90;;;-4.14;32.74
80640;BME280;69992;60.170;24.692;2024-02-16T05:11:17;102079.74;;;-4.19;32.75
80640;BME280;69992;60.170;24.692;2024-02-16T05:13:42;102076.98;;;-4.14;32.74
80640;BME280;69992;60.170;24.692;2024-02-16T05:16:08;102074.76;;;-4.13;32.72
80640;BME280;69992;60.170;24.692;2024-02-16T05:18:33;102074.83;;;-5.19;32.76
80640;BME280;69992;60.170;24.692;2024-02-16T05:21:02;102074.64;;;-4.30;32.77
80640;BME280;69992;60.170;24.692;2024-02-16T05:23:24;102076.79;;;-4.33;32.78
80640;BME280;69992;60.170;24.692;2024-02-16T05:25:49;102075.91;;;-5.35;32.76
80640;BME280;69992;60.170;24.692;2024-02-16T05:28:14;102079.12;;;-4.45;32.79
80640;BME280;69992;60.170;24.692;2024-02-16T05:30:40;102079.05;;;-5.50;32.81
80640;BME280;69992;60.170;24.692;2024-02-16T05:33:05;102074.71;;;-4.49;32.81
80640;BME280;69992;60.170;24.692;2024-02-16T05:35:31;102075.72;;;-4.46;32.80
80640;BME280;69992;60.170;24.692;2024-02-16T05:37:56;102075.25;;;-4.42;32.80
80640;BME280;69992;60.170;24.692;2024-02-16T05:40:22;102074.26;;;-6.34;32.77
80640;BME280;69992;60.170;24.692;2024-02-16T05:42:47;102073.29;;;-4.40;32.76
80640;BME280;69992;60.170;24.692;2024-02-16T05:45:13;102075.67;;;-6.40;32.77
80640;BME280;69992;60.170;24.692;2024-02-16T05:47:38;102073.82;;;-4.52;32.81
80640;BME280;69992;60.170;24.692;2024-02-16T05:50:04;102069.39;;;-5.50;32.83
80640;BME280;69992;60.170;24.692;2024-02-16T05:52:28;102066.74;;;-4.48;32.81
80640;BME280;69992;60.170;24.692;2024-02-16T05:54:54;102065.74;;;-4.52;32.80
80640;BME280;69992;60.170;24.692;2024-02-16T05:57:22;102063.70;;;-6.52;32.81
80640;BME280;69992;60.170;24.692;2024-02-16T05:59:45;102063.97;;;-4.59;32.82
80640;BME280;69992;60.170;24.692;2024-02-16T06:02:11;102063.95;;;-5.44;32.80
80640;BME280;69992;60.170;24.692;2024-02-16T06:04:36;102064.77;;;-6.38;32.77
80640;BME280;69992;60.170;24.692;2024-02-16T06:07:01;102063.22;;;-4.47;32.78
80640;BME280;69992;60.170;24.692;2024-02-16T06:09:27;102064.77;;;-5.43;32.76
80640;BME280;69992;60.170;24.692;2024-02-16T06:11:52;102063.04;;;-4.40;32.71
80640;BME280;69992;60.170;24.692;2024-02-16T06:14:18;102062.55;;;-4.50;32.75
80640;BME280;69992;60.170;24.692;2024-02-16T06:16:46;102055.47;;;-6.48;32.77
80640;BME280;69992;60.170;24.692;2024-02-16T06:19:09;102049.08;;;-4.51;32.78
80640;BME280;69992;60.170;24.692;2024-02-16T06:21:33;102046.61;;;-4.50;32.79
80640;BME280;69992;60.170;24.692;2024-02-16T06:23:59;102042.60;;;-4.46;32.77
80640;BME280;69992;60.170;24.692;2024-02-16T06:26:24;102040.46;;;-5.45;32.80
80640;BME280;69992;60.170;24.692;2024-02-16T06:28:50;102042.33;;;-5.48;32.80
80640;BME280;69992;60.170;24.692;2024-02-16T06:31:16;102049.80;;;-4.64;32.85
80640;BME280;69992;60.170;24.692;2024-02-16T06:33:41;102039.36;;;-4.56;32.82
80640;BME280;69992;60.170;24.692;2024-02-16T06:36:07;102035.26;;;-4.46;32.77
80640;BME280;69992;60.170;24.692;2024-02-16T06:38:32;102031.44;;;-6.36;32.75
80640;BME280;69992;60.170;24.692;2024-02-16T06:40:57;102031.58;;;-5.29;32.72
80640;BME280;69992;60.170;24.692;2024-02-16T06:43:23;102026.83;;;-4.35;32.72
80640;BME280;69992;60.170;24.692;2024-02-16T06:45:48;102027.12;;;-5.39;32.75
80640;BME280;69992;60.170;24.692;2024-02-16T06:48:17;102025.38;;;-4.47;32.76
80640;BME280;69992;60.170;24.692;2024-02-16T06:50:39;102031.36;;;-4.57;32.80
80640;BME280;69992;60.170;24.692;2024-02-16T06:53:05;102031.89;;;-4.58;32.80
80640;BME280;69992;60.170;24.692;2024-02-16T06:55:30;102027.93;;;-4.56;32.81
80640;BME280;69992;60.170;24.692;2024-02-16T06:57:56;102025.09;;;-3.57;32.79
80640;BME280;69992;60.170;24.692;2024-02-16T07:00:24;102022.34;;;-6.57;32.81
80640;BME280;69992;60.170;24.692;2024-02-16T07:02:47;102018.35;;;-4.61;32.81
80640;BME280;69992;60.170;24.692;2024-02-16T07:05:13;102018.97;;;-4.59;32.81
80640;BME280;69992;60.170;24.692;2024-02-16T07:07:38;102014.15;;;-4.48;32.79
80640;BME280;69992;60.170;24.692;2024-02-16T07:10:04;102013.10;;;-4.50;32.79
80640;BME280;69992;60.170;24.692;2024-02-16T07:12:29;102016.32;;;-4.59;32.82
80640;BME280;69992;60.170;24.692;2024-02-16T07:14:54;102012.76;;;-4.55;32.83
80640;BME280;69992;60.170;24.692;2024-02-16T07:17:19;102016.40;;;-6.46;32.80
80640;BME280;69992;60.170;24.692;2024-02-16T07:19:45;102013.54;;;-6.56;32.83
80640;BME280;69992;60.170;24.692;2024-02-16T07:22:11;102010.49;;;-4.65;32.83
80640;BME280;69992;60.170;24.692;2024-02-16T07:24:36;102008.35;;;-4.65;32.84
80640;BME280;69992;60.170;24.692;2024-02-16T07:27:02;102006.77;;;-4.66;32.85
80640;BME280;69992;60.170;24.692;2024-02-16T07:29:28;102009.06;;;-5.57;32.84
80640;BME280;69992;60.170;24.692;2024-02-16T07:31:53;102004.10;;;-4.54;32.83
80640;BME280;69992;60.170;24.692;2024-02-16T07:34:19;102005.29;;;-5.45;32.80
80640;BME280;69992;60.170;24.692;2024-02-16T07:36:43;102004.85;;;-5.38;32.79
80640;BME280;69992;60.170;24.692;2024-02-16T07:39:09;102002.43;;;-4.32;32.77
80640;BME280;69992;60.170;24.692;2024-02-16T07:41:34;102000.65;;;-4.26;32.78
80640;BME280;69992;60.170;24.692;2024-02-16T07:44:03;102002.53;;;-4.22;32.76
80640;BME280;69992;60.170;24.692;2024-02-16T07:46:25;102001.91;;;-5.27;32.79
80640;BME280;69992;60.170;24.692;2024-02-16T07:48:51;101999.33;;;-4.39;32.83
80640;BME280;69992;60.170;24.692;2024-02-16T07:51:16;101995.72;;;-4.48;32.84
80640;BME280;69992;60.170;24.692;2024-02-16T07:53:41;101995.39;;;-4.61;32.89
80640;BME280;69992;60.170;24.692;2024-02-16T07:56:07;101994.78;;;-5.60;32.88
80640;BME280;69992;60.170;24.692;2024-02-16T07:58:32;101992.91;;;-4.66;32.90
80640;BME280;69992;60.170;24.692;2024-02-16T08:00:57;101992.17;;;-4.65;32.90
80640;BME280;69992;60.170;24.692;2024-02-16T08:03:23;101986.61;;;-4.65;32.90
80640;BME280;69992;60.170;24.692;2024-02-16T08:05:48;101979.47;;;-4.63;32.88
80640;BME280;69992;60.170;24.692;2024-02-16T08:08:13;101979.88;;;-4.58;32.84
80640;BME280;69992;60.170;24.692;2024-02-16T08:10:39;101983.96;;;-4.64;32.85
80640;BME280;69992;60.170;24.692;2024-02-16T08:13:04;101983.59;;;-4.72;32.87
80640;BME280;69992;60.170;24.692;2024-02-16T08:15:30;101979.97;;;-5.79;32.92
80640;BME280;69992;60.170;24.692;2024-02-16T08:17:56;101988.05;;;-4.81;32.91
80640;BME280;69992;60.170;24.692;2024-02-16T08:20:21;101978.31;;;-6.73;32.90
80640;BME280;69992;60.170;24.692;2024-02-16T08:22:46;101972.01;;;-4.69;32.87
80640;BME280;69992;60.170;24.692;2024-02-16T08:25:12;101972.04;;;-5.82;32.90
80640;BME280;69992;60.170;24.692;2024-02-16T08:27:37;101962.96;;;-4.91;32.91
80640;BME280;69992;60.170;24.692;2024-02-16T08:30:13;101963.99;;;-4.84;32.87
80640;BME280;69992;60.170;24.692;2024-02-16T08:32:31;101965.70;;;-4.95;32.94
80640;BME280;69992;60.170;24.692;2024-02-16T08:34:54;101958.32;;;-6.15;32.95
80640;BME280;69992;60.170;24.692;2024-02-16T08:37:19;101960.62;;;-6.24;32.99
80640;BME280;69992;60.170;24.692;2024-02-16T08:39:45;101956.79;;;-5.28;33.00
80640;BME280;69992;60.170;24.692;2024-02-16T08:42:11;101947.81;;;-5.40;33.03
80640;BME280;69992;60.170;24.692;2024-02-16T08:44:36;101945.86;;;-5.45;33.03
80640;BME280;69992;60.170;24.692;2024-02-16T08:47:02;101946.55;;;-4.49;33.01
80640;BME280;69992;60.170;24.692;2024-02-16T08:49:26;101937.90;;;-5.49;33.00
80640;BME280;69992;60.170;24.692;2024-02-16T08:51:52;101939.12;;;-5.48;33.01
80640;BME280;69992;60.170;24.692;2024-02-16T08:54:18;101933.57;;;-5.40;33.00
80640;BME280;69992;60.170;24.692;2024-02-16T08:56:44;101927.99;;;-5.31;32.97
80640;BME280;69992;60.170;24.692;2024-02-16T08:59:09;101930.44;;;-4.24;32.95
80640;BME280;69992;60.170;24.692;2024-02-16T09:01:35;101928.61;;;-6.22;32.95
80640;BME280;69992;60.170;24.692;2024-02-16T09:04:00;101920.53;;;-5.36;32.96
80640;BME280;69992;60.170;24.692;2024-02-16T09:06:25;101919.98;;;-5.44;32.98
80640;BME280;69992;60.170;24.692;2024-02-16T09:08:51;101917.60;;;-5.35;32.95
80640;BME280;69992;60.170;24.692;2024-02-16T09:11:16;101911.12;;;-5.26;32.90
80640;BME280;69992;60.170;24.692;2024-02-16T09:13:45;101906.15;;;-5.35;32.94
80640;BME280;69992;60.170;24.692;2024-02-16T09:16:07;101902.94;;;-5.42;32.96
80640;BME280;69992;60.170;24.692;2024-02-16T09:18:32;101893.85;;;-5.51;32.99
80640;BME280;69992;60.170;24.692;2024-02-16T09:20:57;101894.70;;;-5.61;33.01
80640;BME280;69992;60.170;24.692;2024-02-16T09:23:23;101894.72;;;-5.67;33.03
80640;BME280;69992;60.170;24.692;2024-02-16T09:25:48;101888.74;;;-5.71;33.04
80640;BME280;69992;60.170;24.692;2024-02-16T09:28:14;101886.32;;;-5.76;33.07
80640;BME280;69992;60.170;24.692;2024-02-16T09:30:39;101881.39;;;-5.74;33.04
80640;BME280;69992;60.170;24.692;2024-02-16T09:33:05;101884.01;;;-5.74;33.04
80640;BME280;69992;60.170;24.692;2024-02-16T09:35:30;101876.62;;;-5.75;33.06
80640;BME280;69992;60.170;24.692;2024-02-16T09:37:55;101872.23;;;-4.61;32.99
80640;BME280;69992;60.170;24.692;2024-02-16T09:40:22;101864.94;;;-6.55;33.00
80640;BME280;69992;60.170;24.692;2024-02-16T09:42:48;101865.61;;;-5.58;33.00
80640;BME280;69992;60.170;24.692;2024-02-16T09:45:12;101857.71;;;-5.53;32.99
80640;BME280;69992;60.170;24.692;2024-02-16T09:47:39;101857.83;;;-6.49;32.97
80640;BME280;69992;60.170;24.692;2024-02-16T09:50:03;101851.16;;;-6.49;32.97
80640;BME280;69992;60.170;24.692;2024-02-16T09:52:28;101851.13;;;-6.44;32.97
80640;BME280;69992;60.170;24.692;2024-02-16T09:54:53;101842.07;;;-5.49;32.98
80640;BME280;69992;60.170;24.692;2024-02-16T09:57:19;101845.89;;;-6.53;33.00
80640;BME280;69992;60.170;24.692;2024-02-16T09:59:44;101844.39;;;-6.53;33.00
80640;BME280;69992;60.170;24.692;2024-02-16T10:02:09;101842.67;;;-5.55;32.99
80640;BME280;69992;60.170;24.692;2024-02-16T10:04:35;101836.00;;;-5.52;32.99
80640;BME280;69992;60.170;24.692;2024-02-16T10:07:01;101832.83;;;-5.36;32.95
80640;BME280;69992;60.170;24.692;2024-02-16T10:09:27;101826.94;;;-5.28;32.92
80640;BME280;69992;60.170;24.692;2024-02-16T10:11:52;101823.82;;;-5.29;32.92
80640;BME280;69992;60.170;24.692;2024-02-16T10:14:18;101815.52;;;-5.27;32.92
80640;BME280;69992;60.170;24.692;2024-02-16T10:16:43;101813.97;;;-5.20;32.90
80640;BME280;69992;60.170;24.692;2024-02-16T10:19:08;101809.49;;;-6.13;32.88
80640;BME280;69992;60.170;24.692;2024-02-16T10:21:34;101807.30;;;-5.15;32.88
80640;BME280;69992;60.170;24.692;2024-02-16T10:24:00;101798.86;;;-5.26;32.92
80640;BME280;69992;60.170;24.692;2024-02-16T10:26:25;101792.26;;;-6.29;32.95
80640;BME280;69992;60.170;24.692;2024-02-16T10:28:53;101783.09;;;-5.38;32.94
80640;BME280;69992;60.170;24.692;2024-02-16T10:31:16;101782.55;;;-7.80;32.27
80640;BME280;69992;60.170;24.692;2024-02-16T10:33:42;101781.04;;;-3.91;32.09
80640;BME280;69992;60.170;24.692;2024-02-16T10:36:08;101780.52;;;-4.47;32.43
80640;BME280;69992;60.170;24.692;2024-02-16T10:38:33;101775.43;;;-4.77;32.61
80640;BME280;69992;60.170;24.692;2024-02-16T10:40:59;101774.41;;;-5.02;32.74
80640;BME280;69992;60.170;24.692;2024-02-16T10:43:24;101762.12;;;-5.16;32.81
80640;BME280;69992;60.170;24.692;2024-02-16T10:45:49;101761.75;;;-5.24;32.85
80640;BME280;69992;60.170;24.692;2024-02-16T10:48:14;101759.70;;;-5.29;32.86
80640;BME280;69992;60.170;24.692;2024-02-16T10:50:40;101754.98;;;-5.40;32.89
80640;BME280;69992;60.170;24.692;2024-02-16T10:53:11;101746.57;;;-5.48;32.92
80640;BME280;69992;60.170;24.692;2024-02-16T10:55:31;101742.71;;;-5.53;32.94
80640;BME280;69992;60.170;24.692;2024-02-16T10:57:56;101737.14;;;-5.61;32.95
80640;BME280;69992;60.170;24.692;2024-02-16T11:00:21;101735.34;;;-5.75;32.99
80640;BME280;69992;60.170;24.692;2024-02-16T11:02:53;101728.20;;;-5.76;33.00
80640;BME280;69992;60.170;24.692;2024-02-16T11:05:12;101716.93;;;-5.73;32.96
80640;BME280;69992;60.170;24.692;2024-02-16T11:07:37;101716.31;;;-5.80;32.98
80640;BME280;69992;60.170;24.692;2024-02-16T11:10:04;101713.42;;;-4.83;32.98
80640;BME280;69992;60.170;24.692;2024-02-16T11:12:33;101704.88;;;-5.80;32.97
80640;BME280;69992;60.170;24.692;2024-02-16T11:14:57;101698.95;;;-5.83;32.95
80640;BME280;69992;60.170;24.692;2024-02-16T11:17:21;101693.68;;;-5.78;32.94
80640;BME280;69992;60.170;24.692;2024-02-16T11:19:49;101690.08;;;-5.66;32.90
80640;BME280;69992;60.170;24.692;2024-02-16T11:22:14;101688.48;;;-5.59;32.85
80640;BME280;69992;60.170;24.692;2024-02-16T11:24:37;101682.94;;;-4.60;32.84
80640;BME280;69992;60.170;24.692;2024-02-16T11:27:02;101674.54;;;-5.59;32.84
80640;BME280;69992;60.170;24.692;2024-02-16T11:29:31;101664.59;;;-5.71;32.88
80640;BME280;69992;60.170;24.692;2024-02-16T11:31:55;101659.35;;;-5.77;32.90
80640;BME280;69992;60.170;24.692;2024-02-16T11:34:22;101652.84;;;-5.97;32.92
80640;BME280;69992;60.170;24.692;2024-02-16T11:36:43;101648.08;;;-5.13;32.94
80640;BME280;69992;60.170;24.692;2024-02-16T11:39:12;101646.02;;;-5.09;32.94
80640;BME280;69992;60.170;24.692;2024-02-16T11:41:34;101633.52;;;-6.01;32.92
80640;BME280;69992;60.170;24.692;2024-02-16T11:44:02;101625.38;;;-5.10;32.92
80640;BME280;69992;60.170;24.692;2024-02-16T11:46:25;101620.54;;;-5.08;32.93
80640;BME280;69992;60.170;24.692;2024-02-16T11:48:51;101610.11;;;-6.08;32.93
80640;BME280;69992;60.170;24.692;2024-02-16T11:51:16;101603.17;;;-6.15;32.96
80640;BME280;69992;60.170;24.692;2024-02-16T11:53:42;101596.04;;;-6.12;32.94
80640;BME280;69992;60.170;24.692;2024-02-16T11:56:07;101589.37;;;-5.14;32.94
80640;BME280;69992;60.170;24.692;2024-02-16T11:58:33;101586.97;;;-6.09;32.94
80640;BME280;69992;60.170;24.692;2024-02-16T12:01:01;101587.14;;;-5.09;32.94
80640;BME280;69992;60.170;24.692;2024-02-16T12:03:25;101582.36;;;-6.08;32.94
80640;BME280;69992;60.170;24.692;2024-02-16T12:05:50;101581.94;;;-6.09;32.94
80640;BME280;69992;60.170;24.692;2024-02-16T12:08:14;101576.23;;;-5.07;32.92
80640;BME280;69992;60.170;24.692;2024-02-16T12:10:40;101572.15;;;-5.04;32.93
80640;BME280;69992;60.170;24.692;2024-02-16T12:13:05;101568.57;;;-6.01;32.92
80640;BME280;69992;60.170;24.692;2024-02-16T12:15:31;101562.79;;;-5.99;32.93
80640;BME280;69992;60.170;24.692;2024-02-16T12:18:00;101562.30;;;-6.02;32.93
80640;BME280;69992;60.170;24.692;2024-02-16T12:20:21;101550.77;;;-6.12;32.97
80640;BME280;69992;60.170;24.692;2024-02-16T12:22:47;101545.58;;;-5.24;32.97
80640;BME280;69992;60.170;24.692;2024-02-16T12:25:13;101536.12;;;-6.27;33.00
80640;BME280;69992;60.170;24.692;2024-02-16T12:27:42;101529.76;;;-6.20;32.97
80640;BME280;69992;60.170;24.692;2024-02-16T12:30:04;101524.83;;;-6.21;32.95